createdAt,value
2019-03-27T00:03:59.669Z,97.20
2019-03-27T00:09:05.622Z,97.30
2019-03-27T00:14:10.962Z,97.10
2019-03-27T00:19:16.273Z,97.10
2019-03-27T00:24:21.754Z,97.00
2019-03-27T00:29:26.732Z,97.20
2019-03-27T00:34:31.656Z,97.20
2019-03-27T00:39:36.708Z,97.20
2019-03-27T00:44:41.791Z,97.20
2019-03-27T00:49:46.796Z,97.20
2019-03-27T00:54:51.742Z,97.70
2019-03-27T00:59:56.635Z,98.00
2019-03-27T01:05:01.590Z,98.00
2019-03-27T01:10:06.706Z,98.30
2019-03-27T01:15:12.311Z,98.60
2019-03-27T01:20:17.797Z,98.70
2019-03-27T01:25:23.178Z,98.70
2019-03-27T01:30:28.360Z,98.60
2019-03-27T01:35:53.072Z,98.50
2019-03-27T01:40:58.685Z,99.00
2019-03-27T01:46:04.214Z,99.20
2019-03-27T01:51:09.540Z,99.30
2019-03-27T01:56:33.949Z,99.20
2019-03-27T02:01:39.106Z,99.20
2019-03-27T02:06:44.043Z,99.30
2019-03-27T02:11:49.162Z,99.60
2019-03-27T02:16:54.375Z,99.90
2019-03-27T02:22:00.218Z,99.90
2019-03-27T02:27:24.688Z,99.80
2019-03-27T02:32:29.774Z,99.80
2019-03-27T02:37:34.676Z,99.80
2019-03-27T02:42:39.825Z,99.90
2019-03-27T02:47:44.953Z,99.90
2019-03-27T02:53:09.336Z,99.90
2019-03-27T02:58:17.749Z,99.90
2019-03-27T03:03:22.871Z,99.90
2019-03-27T03:08:28.467Z,99.90
2019-03-27T03:13:33.581Z,99.90
2019-03-27T03:18:38.873Z,99.90
2019-03-27T03:23:43.982Z,99.90
2019-03-27T03:28:49.055Z,99.90
2019-03-27T03:33:54.310Z,99.90
2019-03-27T03:38:59.470Z,99.90
2019-03-27T03:44:04.618Z,99.90
2019-03-27T03:49:09.739Z,99.90
2019-03-27T03:54:15.140Z,99.90
2019-03-27T03:59:22.551Z,99.90
2019-03-27T04:04:29.027Z,99.90
2019-03-27T04:09:34.173Z,99.90
2019-03-27T04:14:39.125Z,99.90
2019-03-27T04:19:44.232Z,99.90
2019-03-27T04:24:49.381Z,99.90
2019-03-27T04:30:15.422Z,99.90
2019-03-27T04:35:20.540Z,99.90
2019-03-27T04:40:25.818Z,99.90
2019-03-27T04:45:30.986Z,99.90
2019-03-27T04:50:36.159Z,99.90
2019-03-27T04:55:41.265Z,99.90
2019-03-27T05:00:46.395Z,99.90
2019-03-27T05:05:51.571Z,99.90
2019-03-27T05:10:56.790Z,99.90
2019-03-27T05:16:02.395Z,99.90
2019-03-27T05:21:07.779Z,99.90
2019-03-27T05:26:12.800Z,99.90
2019-03-27T05:31:17.914Z,99.90
2019-03-27T05:36:22.882Z,99.90
2019-03-27T05:41:28.079Z,99.90
2019-03-27T05:46:33.280Z,99.90
2019-03-27T05:51:38.715Z,99.90
2019-03-27T05:56:43.899Z,99.90
2019-03-27T06:01:49.099Z,99.90
2019-03-27T06:06:54.075Z,99.90
2019-03-27T06:11:59.359Z,99.90
2019-03-27T06:17:04.450Z,99.90
2019-03-27T06:22:09.667Z,99.90
2019-03-27T06:27:14.850Z,99.90
2019-03-27T06:32:20.019Z,99.90
2019-03-27T06:37:25.199Z,99.90
2019-03-27T06:42:30.557Z,99.90
2019-03-27T06:47:35.925Z,99.90
2019-03-27T06:52:41.310Z,99.90
2019-03-27T06:57:46.725Z,99.90
2019-03-27T07:03:11.090Z,99.90
2019-03-27T07:08:16.007Z,99.90
2019-03-27T07:13:21.326Z,99.90
2019-03-27T07:18:39.184Z,99.30
2019-03-27T07:23:33.237Z,98.60
2019-03-27T07:28:38.705Z,98.30
2019-03-27T07:33:43.940Z,97.40
2019-03-27T07:39:11.359Z,97.60
2019-03-27T07:44:14.624Z,97.00
2019-03-27T07:49:19.708Z,96.10
2019-03-27T07:54:24.648Z,96.00
2019-03-27T07:59:29.790Z,95.90
2019-03-27T08:04:35.355Z,93.90
2019-03-27T08:09:40.475Z,93.20
2019-03-27T08:15:06.016Z,92.50
2019-03-27T08:20:11.998Z,92.70
2019-03-27T08:25:17.331Z,91.20
2019-03-27T08:30:22.589Z,89.60
2019-03-27T08:35:27.530Z,87.70
2019-03-27T08:40:32.639Z,88.70
2019-03-27T08:45:37.605Z,85.90
2019-03-27T08:50:42.903Z,82.10
2019-03-27T08:55:48.039Z,80.90
2019-03-27T09:00:54.545Z,79.50
2019-03-27T09:06:32.785Z,76.60
2019-03-27T09:11:25.856Z,77.10
2019-03-27T09:16:31.072Z,73.30
2019-03-27T09:21:36.218Z,71.90
2019-03-27T09:26:41.489Z,66.80
2019-03-27T09:31:46.662Z,64.00
2019-03-27T09:36:51.842Z,64.60
2019-03-27T09:41:56.971Z,60.20
2019-03-27T09:47:02.094Z,58.30
2019-03-27T09:52:07.020Z,56.60
2019-03-27T09:57:12.140Z,51.90
2019-03-27T10:02:17.313Z,52.60
2019-03-27T10:07:22.408Z,51.00
2019-03-27T10:12:27.409Z,52.80
2019-03-27T10:17:32.510Z,49.90
2019-03-27T10:22:37.458Z,46.00
2019-03-27T10:27:42.411Z,49.60
2019-03-27T10:32:47.522Z,45.30
2019-03-27T10:37:52.672Z,45.60
2019-03-27T10:42:57.652Z,47.00
2019-03-27T10:48:02.748Z,47.90
2019-03-27T10:53:07.850Z,48.30
2019-03-27T10:58:13.307Z,47.10
2019-03-27T11:03:18.252Z,47.70
2019-03-27T11:08:23.380Z,45.20
2019-03-27T11:13:28.509Z,45.10
2019-03-27T11:18:41.028Z,43.40
2019-03-27T11:24:47.563Z,42.90
2019-03-27T11:29:52.647Z,42.70
2019-03-27T11:34:57.770Z,45.10
2019-03-27T11:40:03.325Z,42.90
2019-03-27T11:46:21.096Z,44.50
2019-03-27T11:51:32.483Z,45.70
2019-03-27T11:56:37.940Z,47.20
2019-03-27T12:01:44.005Z,45.60
2019-03-27T12:12:30.539Z,47.20
2019-03-27T12:17:38.472Z,45.00
2019-03-27T12:23:05.809Z,47.40
2019-03-27T12:28:19.877Z,46.00
2019-03-27T12:33:39.844Z,48.30
2019-03-27T12:38:51.236Z,50.20
2019-03-27T12:43:56.384Z,50.60
2019-03-27T12:49:01.623Z,51.60
2019-03-27T12:54:07.127Z,53.10
2019-03-27T12:59:12.391Z,54.30
2019-03-27T13:04:17.640Z,54.20
2019-03-27T13:09:23.004Z,52.50
2019-03-27T13:14:28.187Z,51.10
2019-03-27T13:19:33.209Z,53.20
2019-03-27T13:24:38.084Z,55.80
2019-03-27T13:29:43.034Z,56.90
2019-03-27T13:34:48.100Z,58.20
2019-03-27T13:39:53.253Z,61.10
2019-03-27T13:44:58.197Z,61.80
2019-03-27T13:50:03.235Z,61.80
2019-03-27T13:55:10.931Z,61.10
2019-03-27T14:00:17.897Z,62.90
2019-03-27T14:05:22.933Z,62.30
2019-03-27T14:10:28.549Z,63.40
2019-03-27T14:15:34.023Z,64.30
2019-03-27T14:20:39.163Z,65.20
2019-03-27T14:25:44.112Z,63.80
2019-03-27T14:30:56.644Z,64.60
2019-03-27T14:36:01.992Z,65.50
2019-03-27T14:41:07.129Z,64.30
2019-03-27T14:46:12.339Z,65.50
2019-03-27T14:51:17.472Z,65.80
2019-03-27T14:56:22.582Z,66.70
2019-03-27T15:01:27.733Z,66.90
2019-03-27T15:06:32.927Z,67.70
2019-03-27T15:11:57.479Z,68.40
2019-03-27T15:17:02.563Z,69.90
2019-03-27T15:22:21.386Z,71.50
2019-03-27T15:27:14.766Z,72.00
2019-03-27T15:32:19.763Z,72.60
2019-03-27T15:37:24.772Z,73.60
2019-03-27T15:42:29.768Z,74.40
2019-03-27T15:47:35.070Z,74.00
2019-03-27T15:52:40.218Z,75.30
2019-03-27T15:57:45.531Z,75.40
2019-03-27T16:02:50.692Z,75.90
2019-03-27T16:07:55.681Z,75.60
2019-03-27T16:13:01.040Z,75.40
2019-03-27T16:18:07.409Z,75.50
2019-03-27T16:23:12.910Z,76.70
2019-03-27T16:28:18.233Z,76.50
2019-03-27T16:33:23.210Z,77.10
2019-03-27T16:38:28.640Z,76.90
2019-03-27T16:43:33.639Z,78.00
2019-03-27T16:48:38.938Z,78.30
2019-03-27T16:53:44.250Z,78.60
2019-03-27T16:58:49.618Z,79.30
2019-03-27T17:03:54.969Z,79.90
2019-03-27T17:09:00.197Z,80.60
2019-03-27T17:14:06.141Z,80.40
2019-03-27T17:19:12.043Z,81.30
2019-03-27T17:24:17.197Z,81.60
2019-03-27T17:29:22.586Z,82.60
2019-03-27T17:34:28.216Z,83.70
2019-03-27T17:39:33.524Z,84.20
2019-03-27T17:44:38.900Z,84.90
2019-03-27T17:49:43.896Z,85.60
2019-03-27T17:54:49.195Z,85.90
2019-03-27T17:59:54.185Z,86.40
2019-03-27T18:04:59.169Z,87.10
2019-03-27T18:10:06.361Z,87.90
2019-03-27T18:15:30.704Z,88.00
2019-03-27T18:20:35.641Z,88.50
2019-03-27T18:25:40.582Z,88.90
2019-03-27T18:30:45.552Z,90.00
2019-03-27T18:35:50.491Z,90.30
2019-03-27T18:40:55.623Z,90.60
2019-03-27T18:46:01.087Z,91.00
2019-03-27T18:51:06.048Z,91.30
2019-03-27T18:56:10.982Z,91.40
2019-03-27T19:01:16.346Z,91.40
2019-03-27T19:06:21.613Z,91.50
2019-03-27T19:11:26.568Z,91.70
2019-03-27T19:16:31.739Z,91.70
2019-03-27T19:21:36.755Z,91.80
2019-03-27T19:26:41.760Z,91.60
2019-03-27T19:31:46.906Z,91.90
2019-03-27T19:36:52.050Z,92.30
2019-03-27T19:41:57.522Z,92.60
2019-03-27T19:47:03.120Z,93.10
2019-03-27T19:52:08.528Z,93.50
2019-03-27T19:57:13.589Z,94.00
2019-03-27T20:02:18.949Z,94.50
2019-03-27T20:07:35.277Z,94.80
2019-03-27T20:12:31.225Z,95.30
2019-03-27T20:17:36.998Z,95.60
2019-03-27T20:22:42.306Z,95.40
2019-03-27T20:27:47.242Z,95.60
2019-03-27T20:32:52.394Z,95.80
2019-03-27T20:37:57.384Z,96.00
2019-03-27T20:43:02.714Z,95.90
2019-03-27T20:48:07.620Z,96.10
2019-03-27T20:53:12.916Z,96.50
2019-03-27T20:58:18.038Z,96.70
2019-03-27T21:03:23.185Z,97.70
2019-03-27T21:08:28.329Z,98.40
2019-03-27T21:13:33.412Z,98.80
2019-03-27T21:18:38.369Z,99.30
2019-03-27T21:23:43.329Z,99.70
2019-03-27T21:28:48.488Z,99.90
2019-03-27T21:33:53.661Z,99.90
2019-03-27T21:38:58.765Z,99.90
2019-03-27T21:44:04.113Z,99.90
2019-03-27T21:49:09.529Z,99.90
2019-03-27T21:54:14.451Z,99.90
2019-03-27T21:59:19.526Z,99.80
2019-03-27T22:04:24.704Z,99.90
2019-03-27T22:09:29.872Z,99.80
2019-03-27T22:14:34.982Z,99.90
2019-03-27T22:19:40.097Z,99.80
2019-03-27T22:24:45.264Z,99.60
2019-03-27T22:29:50.471Z,99.50
2019-03-27T22:34:55.826Z,99.30
2019-03-27T22:40:01.000Z,99.10
2019-03-27T22:45:07.254Z,99.20
2019-03-27T22:50:13.029Z,99.30
2019-03-27T22:55:18.248Z,99.50
2019-03-27T23:00:24.768Z,99.60
2019-03-27T23:05:30.316Z,99.70
2019-03-27T23:10:35.675Z,99.90
2019-03-27T23:15:40.878Z,99.90
2019-03-27T23:20:47.723Z,99.90
2019-03-27T23:26:02.550Z,99.90
2019-03-27T23:30:59.822Z,99.90
2019-03-27T23:36:04.953Z,99.90
2019-03-27T23:41:10.170Z,99.90
2019-03-27T23:46:15.555Z,99.90
2019-03-27T23:51:21.006Z,99.90
2019-03-27T23:56:25.909Z,99.90
